createdAt,value
2018-08-18T00:00:19.593Z,0
2018-08-18T00:01:20.305Z,0
2018-08-18T00:02:21.030Z,0
2018-08-18T00:03:21.741Z,0
2018-08-18T00:04:22.469Z,0
2018-08-18T00:05:23.180Z,0
2018-08-18T00:06:23.892Z,0
2018-08-18T00:07:24.604Z,0
2018-08-18T00:08:25.317Z,0
2018-08-18T00:09:26.029Z,0
2018-08-18T00:10:26.745Z,0
2018-08-18T00:11:27.456Z,0
2018-08-18T00:12:28.168Z,0
2018-08-18T00:13:28.881Z,0
2018-08-18T00:14:29.592Z,0
2018-08-18T00:15:30.317Z,0
2018-08-18T00:16:31.028Z,0
2018-08-18T00:17:31.740Z,0
2018-08-18T00:18:32.466Z,0
2018-08-18T00:19:33.178Z,0
2018-08-18T00:20:33.892Z,0
2018-08-18T00:21:34.604Z,0
2018-08-18T00:22:35.317Z,0
2018-08-18T00:23:36.029Z,0
2018-08-18T00:24:36.741Z,0
2018-08-18T00:25:37.455Z,0
2018-08-18T00:26:38.182Z,0
2018-08-18T00:27:38.895Z,0
2018-08-18T00:28:39.607Z,0
2018-08-18T00:29:40.320Z,0
2018-08-18T00:30:41.035Z,0
2018-08-18T00:31:41.747Z,0
2018-08-18T00:32:42.460Z,0
2018-08-18T00:33:43.174Z,0
2018-08-18T00:34:43.886Z,0
2018-08-18T00:35:44.599Z,0
2018-08-18T00:36:45.312Z,0
2018-08-18T00:37:46.024Z,0
2018-08-18T00:38:46.738Z,0
2018-08-18T00:39:47.462Z,0
2018-08-18T00:40:48.171Z,0
2018-08-18T00:41:48.895Z,0
2018-08-18T00:42:49.606Z,0
2018-08-18T00:43:50.319Z,0
2018-08-18T00:44:51.030Z,0
2018-08-18T00:45:51.742Z,0
2018-08-18T00:46:52.456Z,0
2018-08-18T00:47:53.168Z,0
2018-08-18T00:48:53.882Z,0
2018-08-18T00:49:54.593Z,0
2018-08-18T00:50:55.305Z,0
2018-08-18T00:51:56.019Z,0
2018-08-18T00:52:56.731Z,0
2018-08-18T00:53:57.443Z,0
2018-08-18T00:54:58.155Z,0
2018-08-18T00:55:58.882Z,0
2018-08-18T00:56:59.596Z,0
2018-08-18T00:58:00.309Z,0
2018-08-18T00:59:01.021Z,0
2018-08-18T01:00:01.738Z,0
2018-08-18T01:01:02.447Z,0
2018-08-18T01:02:03.162Z,0
2018-08-18T01:03:03.877Z,0
2018-08-18T01:04:04.590Z,0
2018-08-18T01:05:05.301Z,0
2018-08-18T01:06:06.018Z,0
2018-08-18T01:07:06.728Z,0
2018-08-18T01:08:07.440Z,0
2018-08-18T01:09:08.152Z,0
2018-08-18T01:10:08.866Z,0
2018-08-18T01:11:09.756Z,0
2018-08-18T01:12:10.442Z,0
2018-08-18T01:13:11.031Z,0
2018-08-18T01:14:11.750Z,0
2018-08-18T01:15:12.443Z,0
2018-08-18T01:16:13.158Z,0
2018-08-18T01:17:13.867Z,0
2018-08-18T01:18:14.592Z,0
2018-08-18T01:19:15.303Z,0
2018-08-18T01:20:16.033Z,0
2018-08-18T01:21:16.755Z,0
2018-08-18T01:22:17.461Z,0
2018-08-18T01:23:18.175Z,0
2018-08-18T01:24:18.894Z,0
2018-08-18T01:25:19.607Z,0
2018-08-18T01:26:20.319Z,0
2018-08-18T01:27:21.031Z,0
2018-08-18T01:28:21.746Z,0
2018-08-18T01:29:22.470Z,0
2018-08-18T01:30:23.180Z,0
2018-08-18T01:31:23.895Z,0
2018-08-18T01:32:24.606Z,0
2018-08-18T01:33:25.331Z,0
2018-08-18T01:34:26.057Z,0
2018-08-18T01:35:26.768Z,0
2018-08-18T01:36:27.493Z,0
2018-08-18T01:37:28.205Z,0
2018-08-18T01:38:28.916Z,0
2018-08-18T01:39:29.629Z,0
2018-08-18T01:40:30.340Z,0
2018-08-18T01:41:31.050Z,0
2018-08-18T01:42:31.776Z,0
2018-08-18T01:43:32.489Z,0
2018-08-18T01:44:33.203Z,0
2018-08-18T01:45:33.931Z,0
2018-08-18T01:46:34.654Z,0
2018-08-18T01:47:35.365Z,0
2018-08-18T01:48:36.074Z,0
2018-08-18T01:49:36.784Z,0
2018-08-18T01:50:37.496Z,0
2018-08-18T01:51:38.207Z,0
2018-08-18T01:52:38.919Z,0
2018-08-18T01:53:39.641Z,0
2018-08-18T01:54:40.350Z,0
2018-08-18T01:55:41.061Z,0
2018-08-18T01:56:41.785Z,0
2018-08-18T01:57:42.484Z,0
2018-08-18T01:58:43.208Z,0
2018-08-18T01:59:43.923Z,0
2018-08-18T02:00:44.644Z,0
2018-08-18T02:01:45.356Z,0
2018-08-18T02:02:46.070Z,0
2018-08-18T02:03:46.785Z,0
2018-08-18T02:04:47.493Z,0
2018-08-18T02:05:48.205Z,0
2018-08-18T02:06:48.930Z,0
2018-08-18T02:07:49.641Z,0
2018-08-18T02:08:50.363Z,0
2018-08-18T02:09:51.074Z,0
2018-08-18T02:10:51.784Z,0
2018-08-18T02:11:52.508Z,0
2018-08-18T02:12:53.220Z,0
2018-08-18T02:13:53.931Z,0
2018-08-18T02:14:54.657Z,0
2018-08-18T02:15:55.384Z,0
2018-08-18T02:16:56.097Z,0
2018-08-18T02:17:56.805Z,0
2018-08-18T02:18:57.517Z,0
2018-08-18T02:19:58.287Z,0
2018-08-18T02:20:58.945Z,0
2018-08-18T02:21:59.656Z,0
2018-08-18T02:23:00.365Z,0
2018-08-18T02:24:01.074Z,0
2018-08-18T02:25:01.787Z,0
2018-08-18T02:26:02.509Z,0
2018-08-18T02:27:03.223Z,0
2018-08-18T02:28:03.941Z,0
2018-08-18T02:29:04.653Z,0
2018-08-18T02:30:05.377Z,0
2018-08-18T02:31:06.098Z,0
2018-08-18T02:32:06.809Z,0
2018-08-18T02:33:07.522Z,0
2018-08-18T02:34:08.240Z,0
2018-08-18T02:35:08.962Z,0
2018-08-18T02:36:09.672Z,0
2018-08-18T02:37:10.385Z,0
2018-08-18T02:38:11.095Z,0
2018-08-18T02:39:11.807Z,0
2018-08-18T02:40:12.605Z,0
2018-08-18T02:41:13.227Z,0
2018-08-18T02:42:13.940Z,0
2018-08-18T02:43:14.660Z,0
2018-08-18T02:44:15.372Z,0
2018-08-18T02:45:16.082Z,0
2018-08-18T02:46:16.805Z,0
2018-08-18T02:47:17.518Z,0
2018-08-18T02:48:18.228Z,0
2018-08-18T02:49:18.939Z,0
2018-08-18T02:50:19.654Z,0
2018-08-18T02:51:20.360Z,0
2018-08-18T02:52:21.073Z,0
2018-08-18T02:53:21.784Z,0
2018-08-18T02:54:22.496Z,0
2018-08-18T02:55:23.207Z,0
2018-08-18T02:56:23.918Z,0
2018-08-18T02:57:24.643Z,0
2018-08-18T02:58:25.368Z,0
2018-08-18T02:59:26.088Z,0
2018-08-18T03:00:26.805Z,0
2018-08-18T03:01:27.513Z,0
2018-08-18T03:02:28.260Z,0
2018-08-18T03:03:28.970Z,0
2018-08-18T03:04:29.683Z,0
2018-08-18T03:05:30.390Z,0
2018-08-18T03:06:31.100Z,0
2018-08-18T03:07:31.822Z,0
2018-08-18T03:08:32.532Z,0
2018-08-18T03:09:33.246Z,0
2018-08-18T03:10:33.963Z,0
2018-08-18T03:11:34.674Z,0
2018-08-18T03:12:35.388Z,0
2018-08-18T03:13:36.096Z,0
2018-08-18T03:14:36.807Z,0
2018-08-18T03:15:37.517Z,0
2018-08-18T03:16:38.229Z,0
2018-08-18T03:17:38.952Z,0
2018-08-18T03:18:39.662Z,0
2018-08-18T03:19:40.372Z,0
2018-08-18T03:20:41.086Z,0
2018-08-18T03:21:41.795Z,0
2018-08-18T03:22:42.505Z,0
2018-08-18T03:23:43.216Z,0
2018-08-18T03:24:43.931Z,0
2018-08-18T03:25:44.640Z,0
2018-08-18T03:26:45.353Z,0
2018-08-18T03:27:46.062Z,0
2018-08-18T03:28:46.775Z,0
2018-08-18T03:29:47.498Z,0
2018-08-18T03:30:48.208Z,0
2018-08-18T03:31:48.924Z,0
2018-08-18T03:32:49.629Z,0
2018-08-18T03:33:50.340Z,0
2018-08-18T03:34:51.051Z,0
2018-08-18T03:35:51.772Z,0
2018-08-18T03:36:52.482Z,0
2018-08-18T03:37:53.193Z,0
2018-08-18T03:38:53.915Z,0
2018-08-18T03:39:54.626Z,0
2018-08-18T03:40:55.348Z,0
2018-08-18T03:41:56.057Z,0
2018-08-18T03:42:56.767Z,0
2018-08-18T03:43:57.476Z,0
2018-08-18T03:44:58.224Z,0
2018-08-18T03:45:58.948Z,4
2018-08-18T03:46:59.656Z,4
2018-08-18T03:48:00.366Z,0
2018-08-18T03:49:01.076Z,4
2018-08-18T03:50:01.786Z,4
2018-08-18T03:51:02.507Z,4
2018-08-18T03:52:03.216Z,4
2018-08-18T03:53:03.941Z,4
2018-08-18T03:54:04.653Z,4
2018-08-18T03:55:05.363Z,8
2018-08-18T03:56:06.080Z,8
2018-08-18T03:57:06.800Z,12
2018-08-18T03:58:07.524Z,16
2018-08-18T03:59:08.235Z,16
2018-08-18T04:00:08.946Z,20
2018-08-18T04:01:09.659Z,24
2018-08-18T04:02:10.369Z,28
2018-08-18T04:03:11.081Z,32
2018-08-18T04:04:11.790Z,36
2018-08-18T04:05:12.526Z,40
2018-08-18T04:06:13.214Z,48
2018-08-18T04:07:13.929Z,52
2018-08-18T04:08:14.637Z,60
2018-08-18T04:09:15.415Z,68
2018-08-18T04:10:16.061Z,76
2018-08-18T04:11:16.772Z,84
2018-08-18T04:12:17.482Z,96
2018-08-18T04:13:18.195Z,108
2018-08-18T04:14:18.907Z,92
2018-08-18T04:15:19.625Z,132
2018-08-18T04:16:20.344Z,148
2018-08-18T04:17:21.060Z,160
2018-08-18T04:18:21.770Z,176
2018-08-18T04:19:22.483Z,192
2018-08-18T04:20:23.196Z,208
2018-08-18T04:21:23.909Z,228
2018-08-18T04:22:24.636Z,244
2018-08-18T04:23:25.350Z,264
2018-08-18T04:24:26.064Z,284
2018-08-18T04:25:26.780Z,304
2018-08-18T04:26:27.493Z,328
2018-08-18T04:27:28.216Z,352
2018-08-18T04:28:28.931Z,376
2018-08-18T04:29:29.646Z,404
2018-08-18T04:30:30.359Z,428
2018-08-18T04:31:31.071Z,452
2018-08-18T04:32:31.785Z,480
2018-08-18T04:33:32.497Z,508
2018-08-18T04:34:33.225Z,532
2018-08-18T04:35:33.938Z,564
2018-08-18T04:36:34.650Z,592
2018-08-18T04:37:35.362Z,624
2018-08-18T04:38:36.077Z,656
2018-08-18T04:39:36.788Z,688
2018-08-18T04:40:37.523Z,720
2018-08-18T04:41:38.228Z,752
2018-08-18T04:42:38.940Z,784
2018-08-18T04:43:39.667Z,816
2018-08-18T04:44:40.380Z,852
2018-08-18T04:45:41.095Z,888
2018-08-18T04:46:41.818Z,924
2018-08-18T04:47:42.534Z,960
2018-08-18T04:48:43.247Z,996
2018-08-18T04:49:43.963Z,1032
2018-08-18T04:50:44.692Z,1072
2018-08-18T04:51:45.418Z,1116
2018-08-18T04:52:46.132Z,1156
2018-08-18T04:53:46.848Z,1200
2018-08-18T04:54:47.563Z,1240
2018-08-18T04:55:48.291Z,1272
2018-08-18T04:56:49.051Z,1304
2018-08-18T04:57:49.732Z,1340
2018-08-18T04:58:50.449Z,1368
2018-08-18T04:59:51.179Z,1392
2018-08-18T05:00:51.895Z,1420
2018-08-18T05:01:52.609Z,1440
2018-08-18T05:02:53.326Z,1456
2018-08-18T05:03:54.039Z,1476
2018-08-18T05:04:54.753Z,1492
2018-08-18T05:05:55.469Z,1516
2018-08-18T05:06:56.196Z,1536
2018-08-18T05:07:56.913Z,1544
2018-08-18T05:08:57.740Z,1540
2018-08-18T05:09:58.347Z,1524
2018-08-18T05:10:59.060Z,1540
2018-08-18T05:11:59.774Z,1552
2018-08-18T05:13:00.489Z,1596
2018-08-18T05:14:01.205Z,1632
2018-08-18T05:15:01.919Z,1652
2018-08-18T05:16:02.635Z,1672
2018-08-18T05:17:03.351Z,1660
2018-08-18T05:18:04.078Z,1596
2018-08-18T05:19:04.840Z,1616
2018-08-18T05:20:05.507Z,1668
2018-08-18T05:21:06.224Z,1736
2018-08-18T05:22:06.942Z,1804
2018-08-18T05:23:07.666Z,1876
2018-08-18T05:24:08.396Z,1940
2018-08-18T05:25:09.110Z,1984
2018-08-18T05:26:09.837Z,2020
2018-08-18T05:27:10.550Z,2056
2018-08-18T05:28:11.266Z,2088
2018-08-18T05:29:11.979Z,2120
2018-08-18T05:30:12.697Z,2152
2018-08-18T05:31:13.413Z,2188
2018-08-18T05:32:14.143Z,2224
2018-08-18T05:33:14.858Z,2260
2018-08-18T05:34:15.585Z,2292
2018-08-18T05:35:16.302Z,2288
2018-08-18T05:36:17.027Z,2296
2018-08-18T05:37:17.755Z,2308
2018-08-18T05:38:18.484Z,2328
2018-08-18T05:39:19.200Z,2356
2018-08-18T05:40:19.928Z,2392
2018-08-18T05:41:20.642Z,2448
2018-08-18T05:42:21.374Z,2484
2018-08-18T05:43:22.088Z,2520
2018-08-18T05:44:22.799Z,2552
2018-08-18T05:45:23.530Z,2584
2018-08-18T05:46:24.242Z,2612
2018-08-18T05:47:24.961Z,2636
2018-08-18T05:48:25.677Z,2664
2018-08-18T05:49:26.386Z,2692
2018-08-18T05:50:27.102Z,2716
2018-08-18T05:51:27.820Z,2748
2018-08-18T05:52:28.543Z,2776
2018-08-18T05:53:29.266Z,2796
2018-08-18T05:54:29.989Z,2816
2018-08-18T05:55:30.703Z,2844
2018-08-18T05:56:31.431Z,2876
2018-08-18T05:57:32.146Z,2908
2018-08-18T05:58:32.861Z,2940
2018-08-18T05:59:33.643Z,2968
2018-08-18T06:00:34.317Z,2996
2018-08-18T06:01:35.034Z,3028
2018-08-18T06:02:35.750Z,3068
2018-08-18T06:03:36.467Z,3108
2018-08-18T06:04:37.194Z,3144
2018-08-18T06:05:37.928Z,3200
2018-08-18T06:06:38.629Z,3244
2018-08-18T06:07:39.348Z,3280
2018-08-18T06:08:40.066Z,3320
2018-08-18T06:09:40.785Z,3364
2018-08-18T06:10:41.502Z,3392
2018-08-18T06:11:42.229Z,3412
2018-08-18T06:12:42.959Z,3444
2018-08-18T06:13:43.675Z,3480
2018-08-18T06:14:44.403Z,3516
2018-08-18T06:15:45.119Z,3544
2018-08-18T06:16:45.837Z,3580
2018-08-18T06:17:46.554Z,3624
2018-08-18T06:18:47.273Z,3664
2018-08-18T06:19:47.990Z,3696
2018-08-18T06:20:48.704Z,3728
2018-08-18T06:21:49.426Z,3764
2018-08-18T06:22:50.141Z,3796
2018-08-18T06:23:50.859Z,3828
2018-08-18T06:24:51.578Z,3856
2018-08-18T06:25:52.296Z,3884
2018-08-18T06:26:53.016Z,3920
2018-08-18T06:27:53.736Z,3960
2018-08-18T06:28:54.454Z,3996
2018-08-18T06:29:55.182Z,4028
2018-08-18T06:30:55.899Z,4052
2018-08-18T06:31:56.628Z,4100
2018-08-18T06:32:57.360Z,4144
2018-08-18T06:33:58.076Z,4196
2018-08-18T06:34:58.853Z,4248
2018-08-18T06:35:59.540Z,4276
2018-08-18T06:37:00.230Z,4316
2018-08-18T06:38:00.948Z,4356
2018-08-18T06:39:01.662Z,4392
2018-08-18T06:40:02.392Z,4448
2018-08-18T06:41:03.137Z,4504
2018-08-18T06:42:03.870Z,4596
2018-08-18T06:43:04.589Z,4692
2018-08-18T06:44:05.309Z,4820
2018-08-18T06:45:06.030Z,4956
2018-08-18T06:46:06.746Z,5064
2018-08-18T06:47:07.480Z,5144
2018-08-18T06:48:08.195Z,5224
2018-08-18T06:49:08.917Z,5332
2018-08-18T06:50:09.638Z,5408
2018-08-18T06:51:10.356Z,5528
2018-08-18T06:52:11.075Z,5660
2018-08-18T06:53:11.796Z,5784
2018-08-18T06:54:12.518Z,5976
2018-08-18T06:55:13.365Z,6156
2018-08-18T06:56:13.962Z,6440
2018-08-18T06:57:14.696Z,6704
2018-08-18T06:58:15.429Z,7108
2018-08-18T06:59:16.151Z,7588
2018-08-18T07:00:16.874Z,8828
2018-08-18T07:01:17.598Z,11292
2018-08-18T07:02:18.332Z,17120
2018-08-18T07:03:19.072Z,23904
2018-08-18T07:04:19.792Z,27552
2018-08-18T07:05:20.514Z,28544
2018-08-18T07:06:21.237Z,29568
2018-08-18T07:07:21.961Z,30176
2018-08-18T07:08:22.699Z,30272
2018-08-18T07:09:23.435Z,31232
2018-08-18T07:10:24.157Z,32608
2018-08-18T07:11:24.882Z,33696
2018-08-18T07:12:25.606Z,33504
2018-08-18T07:13:26.345Z,33760
2018-08-18T07:14:27.067Z,33312
2018-08-18T07:15:27.791Z,33312
2018-08-18T07:16:28.515Z,34048
2018-08-18T07:17:29.242Z,34688
2018-08-18T07:18:29.980Z,34368
2018-08-18T07:19:30.750Z,34336
2018-08-18T07:20:31.434Z,34752
2018-08-18T07:21:32.161Z,35168
2018-08-18T07:22:32.886Z,36064
2018-08-18T07:23:33.609Z,36864
2018-08-18T07:24:34.336Z,38336
2018-08-18T07:25:35.072Z,39072
2018-08-18T07:26:35.805Z,39520
2018-08-18T07:27:36.538Z,39904
2018-08-18T07:28:37.324Z,40192
2018-08-18T07:29:37.992Z,41088
2018-08-18T07:30:38.732Z,41600
2018-08-18T07:31:39.473Z,40800
2018-08-18T07:32:40.216Z,40768
2018-08-18T07:33:40.957Z,40896
2018-08-18T07:34:41.706Z,41536
2018-08-18T07:35:42.436Z,41440
2018-08-18T07:36:43.166Z,41472
2018-08-18T07:37:43.894Z,41984
2018-08-18T07:38:44.628Z,41344
2018-08-18T07:39:45.358Z,41632
2018-08-18T07:40:46.089Z,43072
2018-08-18T07:41:46.820Z,43968
2018-08-18T07:42:47.552Z,45280
2018-08-18T07:43:48.282Z,45504
2018-08-18T07:44:49.014Z,44896
2018-08-18T07:45:49.744Z,46336
2018-08-18T07:46:50.479Z,46432
2018-08-18T07:47:51.221Z,47360
2018-08-18T07:48:51.962Z,48224
2018-08-18T07:49:52.703Z,48000
2018-08-18T07:50:53.433Z,48224
2018-08-18T07:51:54.162Z,47520
2018-08-18T07:52:54.905Z,49568
2018-08-18T07:53:55.635Z,50720
2018-08-18T07:54:56.364Z,49792
2018-08-18T07:55:57.104Z,50784
2018-08-18T07:56:57.830Z,51584
2018-08-18T07:57:58.563Z,53152
2018-08-18T07:58:59.291Z,53216
2018-08-18T08:00:00.060Z,51712
2018-08-18T08:01:00.761Z,51936
2018-08-18T08:02:01.491Z,53664
2018-08-18T08:03:02.219Z,53920
2018-08-18T08:04:02.950Z,52832
2018-08-18T08:05:03.687Z,53856
2018-08-18T08:06:04.421Z,53408
2018-08-18T08:07:05.164Z,53440
2018-08-18T08:08:05.894Z,54368
2018-08-18T08:09:06.624Z,53856
2018-08-18T08:10:07.353Z,54688
2018-08-18T08:11:08.083Z,54240
2018-08-18T08:12:08.812Z,52640
2018-08-18T08:13:09.550Z,53504
2018-08-18T08:14:10.278Z,52800
2018-08-18T08:15:11.008Z,52224
2018-08-18T08:16:11.739Z,53952
2018-08-18T08:17:12.470Z,55552
2018-08-18T08:18:13.254Z,54144
2018-08-18T08:19:13.931Z,53824
2018-08-18T08:20:14.662Z,53984
2018-08-18T08:21:15.403Z,52384
2018-08-18T08:22:16.133Z,52512
2018-08-18T08:23:16.866Z,55744
2018-08-18T08:24:17.597Z,55008
2018-08-18T08:25:18.328Z,53376
2018-08-18T08:26:19.069Z,52896
2018-08-18T08:27:19.801Z,53088
2018-08-18T08:28:20.532Z,54336
2018-08-18T08:29:21.263Z,54368
2018-08-18T08:30:21.994Z,55456
2018-08-18T08:31:22.728Z,55232
2018-08-18T08:32:23.460Z,54336
2018-08-18T08:33:24.191Z,52960
2018-08-18T08:34:24.923Z,52224
2018-08-18T08:35:25.670Z,54336
2018-08-18T08:36:26.398Z,50848
2018-08-18T08:37:27.134Z,52480
2018-08-18T08:38:27.860Z,56448
2018-08-18T08:39:28.592Z,57472
2018-08-18T08:40:29.321Z,58784
2018-08-18T08:41:30.054Z,58944
2018-08-18T08:42:30.787Z,59360
2018-08-18T08:43:31.518Z,60224
2018-08-18T08:44:32.250Z,61600
2018-08-18T08:45:32.983Z,62240
2018-08-18T08:46:33.728Z,62304
2018-08-18T08:47:34.460Z,62592
2018-08-18T08:48:35.191Z,62880
2018-08-18T08:49:35.921Z,63264
2018-08-18T08:50:36.653Z,60832
2018-08-18T08:51:37.399Z,63168
2018-08-18T08:52:38.147Z,61984
2018-08-18T08:53:38.876Z,62976
2018-08-18T08:54:39.610Z,63008
2018-08-18T08:55:40.343Z,62592
2018-08-18T08:56:41.087Z,66400
2018-08-18T08:57:41.819Z,64992
2018-08-18T08:58:42.566Z,66432
2018-08-18T08:59:43.297Z,68288
2018-08-18T09:00:44.040Z,69856
2018-08-18T09:01:44.772Z,69184
2018-08-18T09:02:45.503Z,67712
2018-08-18T09:03:46.247Z,66912
2018-08-18T09:04:46.988Z,66944
2018-08-18T09:05:47.710Z,68384
2018-08-18T09:06:48.441Z,66624
2018-08-18T09:07:49.173Z,65920
2018-08-18T09:08:49.927Z,64928
2018-08-18T09:09:50.662Z,61728
2018-08-18T09:10:51.395Z,62400
2018-08-18T09:11:52.128Z,63168
2018-08-18T09:12:52.860Z,63040
2018-08-18T09:13:53.592Z,64320
2018-08-18T09:14:54.326Z,64288
2018-08-18T09:15:55.070Z,68448
2018-08-18T09:16:55.806Z,67936
2018-08-18T09:17:56.541Z,68736
2018-08-18T09:18:57.288Z,71392
2018-08-18T09:19:58.023Z,67872
2018-08-18T09:20:58.771Z,66720
2018-08-18T09:21:59.517Z,69952
2018-08-18T09:23:00.264Z,70880
2018-08-18T09:24:01.006Z,72256
2018-08-18T09:25:01.746Z,72320
2018-08-18T09:26:02.540Z,72896
2018-08-18T09:27:03.230Z,72352
2018-08-18T09:28:03.975Z,73216
2018-08-18T09:29:04.716Z,71936
2018-08-18T09:30:05.458Z,76032
2018-08-18T09:31:06.199Z,78144
2018-08-18T09:32:06.950Z,74240
2018-08-18T09:33:07.690Z,80128
2018-08-18T09:34:08.433Z,79648
2018-08-18T09:35:09.176Z,78784
2018-08-18T09:36:09.936Z,77120
2018-08-18T09:37:10.657Z,82240
2018-08-18T09:38:11.397Z,79776
2018-08-18T09:39:12.142Z,79296
2018-08-18T09:40:12.884Z,32160
2018-08-18T09:41:13.628Z,76128
2018-08-18T09:42:14.386Z,76736
2018-08-18T09:43:15.127Z,72832
2018-08-18T09:44:15.872Z,76512
2018-08-18T09:45:16.615Z,81152
2018-08-18T09:46:17.385Z,78560
2018-08-18T09:47:18.095Z,26592
2018-08-18T09:48:18.836Z,17956
2018-08-18T09:49:19.578Z,80736
2018-08-18T09:50:20.323Z,78368
2018-08-18T09:51:21.075Z,70880
2018-08-18T09:52:21.819Z,72032
2018-08-18T09:53:22.563Z,81120
2018-08-18T09:54:23.293Z,80320
2018-08-18T09:55:24.064Z,75584
2018-08-18T09:56:24.811Z,75328
2018-08-18T09:57:25.562Z,83744
2018-08-18T09:58:26.303Z,68288
2018-08-18T09:59:27.042Z,78016
2018-08-18T10:00:27.793Z,74496
2018-08-18T10:01:28.532Z,80736
2018-08-18T10:02:29.272Z,70464
2018-08-18T10:03:30.012Z,77600
2018-08-18T10:04:30.755Z,78912
2018-08-18T10:05:31.507Z,78272
2018-08-18T10:06:32.293Z,77408
2018-08-18T10:07:33.013Z,73824
2018-08-18T10:08:33.751Z,84288
2018-08-18T10:09:34.490Z,48288
2018-08-18T10:10:35.228Z,32128
2018-08-18T10:11:35.967Z,56224
2018-08-18T10:12:36.707Z,39520
2018-08-18T10:13:37.446Z,65536
2018-08-18T10:14:38.186Z,19200
2018-08-18T10:15:38.937Z,30112
2018-08-18T10:16:39.676Z,82528
2018-08-18T10:17:40.414Z,19264
2018-08-18T10:18:41.153Z,23232
2018-08-18T10:19:41.909Z,85824
2018-08-18T10:20:42.650Z,15292
2018-08-18T10:21:43.403Z,18208
2018-08-18T10:22:44.139Z,83648
2018-08-18T10:23:44.881Z,82496
2018-08-18T10:24:45.624Z,15976
2018-08-18T10:25:46.368Z,83872
2018-08-18T10:26:47.111Z,48416
2018-08-18T10:27:47.849Z,85056
2018-08-18T10:28:48.589Z,82944
2018-08-18T10:29:49.333Z,80768
2018-08-18T10:30:50.082Z,70368
2018-08-18T10:31:50.822Z,28288
2018-08-18T10:32:51.564Z,19136
2018-08-18T10:33:52.302Z,77184
2018-08-18T10:34:53.051Z,88032
2018-08-18T10:35:53.792Z,84992
2018-08-18T10:36:54.532Z,81056
2018-08-18T10:37:55.273Z,83680
2018-08-18T10:38:56.016Z,79712
2018-08-18T10:39:56.757Z,85152
2018-08-18T10:40:57.500Z,79264
2018-08-18T10:41:58.265Z,79968
2018-08-18T10:42:58.992Z,82624
2018-08-18T10:43:59.748Z,80704
2018-08-18T10:45:00.486Z,85344
2018-08-18T10:46:01.225Z,84800
2018-08-18T10:47:01.977Z,86656
2018-08-18T10:48:02.716Z,84736
2018-08-18T10:49:03.470Z,86432
2018-08-18T10:50:04.208Z,86976
2018-08-18T10:51:04.947Z,83104
2018-08-18T10:52:05.685Z,82080
2018-08-18T10:53:06.423Z,87584
2018-08-18T10:54:07.163Z,82400
2018-08-18T10:55:07.901Z,81728
2018-08-18T10:56:08.641Z,83264
2018-08-18T10:57:09.380Z,77472
2018-08-18T10:58:10.121Z,76992
2018-08-18T10:59:10.860Z,83232
2018-08-18T11:00:11.612Z,79168
2018-08-18T11:01:12.366Z,78496
2018-08-18T11:02:13.104Z,81984
2018-08-18T11:03:13.843Z,82592
2018-08-18T11:04:14.581Z,82592
2018-08-18T11:05:15.320Z,78560
2018-08-18T11:06:16.059Z,76608
2018-08-18T11:07:16.797Z,83456
2018-08-18T11:08:17.535Z,82048
2018-08-18T11:09:18.276Z,85504
2018-08-18T11:10:19.015Z,81856
2018-08-18T11:11:19.757Z,83104
2018-08-18T11:12:20.498Z,85216
2018-08-18T11:13:21.240Z,81088
2018-08-18T11:14:21.979Z,80800
2018-08-18T11:15:22.735Z,75648
2018-08-18T11:16:23.474Z,81408
2018-08-18T11:17:24.216Z,81536
2018-08-18T11:18:24.970Z,75968
2018-08-18T11:19:25.723Z,79808
2018-08-18T11:20:26.462Z,79808
2018-08-18T11:21:27.213Z,78880
2018-08-18T11:22:27.953Z,80224
2018-08-18T11:23:28.693Z,81376
2018-08-18T11:24:29.432Z,79264
2018-08-18T11:25:30.187Z,80736
2018-08-18T11:26:30.927Z,80224
2018-08-18T11:27:31.667Z,83424
2018-08-18T11:28:32.506Z,77696
2018-08-18T11:29:33.154Z,78304
2018-08-18T11:30:33.893Z,80864
2018-08-18T11:31:34.635Z,76128
2018-08-18T11:32:35.389Z,80512
2018-08-18T11:33:36.125Z,86656
2018-08-18T11:34:36.868Z,85408
2018-08-18T11:35:37.610Z,87808
2018-08-18T11:36:38.350Z,89632
2018-08-18T11:37:39.090Z,86656
2018-08-18T11:38:39.834Z,87200
2018-08-18T11:39:40.568Z,85440
2018-08-18T11:40:41.315Z,85088
2018-08-18T11:41:42.137Z,81184
2018-08-18T11:42:42.807Z,75488
2018-08-18T11:43:43.549Z,79424
2018-08-18T11:44:44.289Z,81248
2018-08-18T11:45:45.025Z,86240
2018-08-18T11:46:45.768Z,84000
2018-08-18T11:48:31.175Z,83104
2018-08-18T11:49:31.917Z,83744
2018-08-18T11:50:32.670Z,83616
2018-08-18T11:51:33.408Z,80000
2018-08-18T11:52:34.160Z,80064
2018-08-18T11:53:34.899Z,79232
2018-08-18T11:54:35.642Z,76832
2018-08-18T11:55:36.396Z,77760
2018-08-18T11:56:37.142Z,74816
2018-08-18T11:57:37.884Z,73408
2018-08-18T11:58:38.625Z,70688
2018-08-18T11:59:39.366Z,73056
2018-08-18T12:00:40.107Z,71904
2018-08-18T12:01:40.848Z,71648
2018-08-18T12:02:41.602Z,70272
2018-08-18T12:03:42.342Z,72704
2018-08-18T12:04:43.082Z,71872
2018-08-18T12:05:43.817Z,71040
2018-08-18T12:06:44.560Z,75040
2018-08-18T12:07:45.301Z,73408
2018-08-18T12:08:46.041Z,73664
2018-08-18T12:09:46.782Z,65760
2018-08-18T12:10:47.701Z,75680
2018-08-18T12:11:48.266Z,71648
2018-08-18T12:12:49.006Z,68736
2018-08-18T12:13:49.746Z,75648
2018-08-18T12:14:50.489Z,74048
2018-08-18T12:15:51.228Z,71840
2018-08-18T12:16:51.981Z,71616
2018-08-18T12:17:52.721Z,73760
2018-08-18T12:18:53.474Z,71168
2018-08-18T12:19:54.214Z,73024
2018-08-18T12:20:54.955Z,75552
2018-08-18T12:21:55.697Z,72512
2018-08-18T12:22:56.438Z,78560
2018-08-18T12:23:57.175Z,78688
2018-08-18T12:24:57.914Z,78912
2018-08-18T12:25:58.657Z,75936
2018-08-18T12:26:59.396Z,79008
2018-08-18T12:28:00.135Z,76480
2018-08-18T12:29:00.874Z,76256
2018-08-18T12:30:01.656Z,79488
2018-08-18T12:31:02.364Z,77632
2018-08-18T12:32:03.108Z,77056
2018-08-18T12:33:03.850Z,81536
2018-08-18T12:34:04.596Z,76928
2018-08-18T12:35:05.335Z,75936
2018-08-18T12:36:06.144Z,72192
2018-08-18T12:37:06.836Z,72672
2018-08-18T12:38:07.571Z,63168
2018-08-18T12:39:08.323Z,67296
2018-08-18T12:40:09.059Z,67904
2018-08-18T12:41:09.801Z,74848
2018-08-18T12:42:10.543Z,73312
2018-08-18T12:43:11.290Z,75264
2018-08-18T12:44:12.029Z,67776
2018-08-18T12:45:12.768Z,73248
2018-08-18T12:46:13.513Z,54656
2018-08-18T12:47:14.251Z,71232
2018-08-18T12:48:15.005Z,72608
2018-08-18T12:49:15.746Z,74112
2018-08-18T12:50:16.516Z,68544
2018-08-18T12:51:17.223Z,72288
2018-08-18T12:52:17.975Z,54848
2018-08-18T12:53:18.716Z,41728
2018-08-18T12:54:19.457Z,63040
2018-08-18T12:55:20.198Z,66816
2018-08-18T12:56:20.937Z,69920
2018-08-18T12:57:21.689Z,68320
2018-08-18T12:58:22.536Z,66336
2018-08-18T12:59:23.169Z,64832
2018-08-18T13:00:23.920Z,65856
2018-08-18T13:01:24.660Z,65184
2018-08-18T13:02:25.400Z,64832
2018-08-18T13:03:26.152Z,66912
2018-08-18T13:04:26.977Z,69184
2018-08-18T13:05:27.635Z,63616
2018-08-18T13:06:28.377Z,63744
2018-08-18T13:07:29.117Z,65024
2018-08-18T13:08:29.872Z,62176
2018-08-18T13:09:30.612Z,64992
2018-08-18T13:10:31.353Z,65216
2018-08-18T13:11:32.105Z,62016
2018-08-18T13:12:32.830Z,64736
2018-08-18T13:13:33.590Z,61344
2018-08-18T13:14:34.336Z,61696
2018-08-18T13:15:35.072Z,63648
2018-08-18T13:16:35.824Z,63296
2018-08-18T13:17:36.563Z,61952
2018-08-18T13:18:37.353Z,61408
2018-08-18T13:19:38.060Z,59680
2018-08-18T13:20:38.835Z,59712
2018-08-18T13:21:39.553Z,58496
2018-08-18T13:22:40.295Z,55712
2018-08-18T13:23:41.032Z,57056
2018-08-18T13:24:41.772Z,62592
2018-08-18T13:25:42.513Z,56352
2018-08-18T13:26:43.249Z,55264
2018-08-18T13:27:43.987Z,58944
2018-08-18T13:28:44.727Z,55456
2018-08-18T13:29:45.468Z,50656
2018-08-18T13:30:46.207Z,52736
2018-08-18T13:31:47.010Z,51616
2018-08-18T13:32:47.688Z,50944
2018-08-18T13:33:48.437Z,54944
2018-08-18T13:34:49.176Z,54368
2018-08-18T13:35:49.919Z,50784
2018-08-18T13:36:50.669Z,50720
2018-08-18T13:37:51.406Z,46752
2018-08-18T13:38:52.147Z,46816
2018-08-18T13:39:52.895Z,43936
2018-08-18T13:40:53.645Z,51232